createdAt,value
2017-10-11T00:00:32.159Z,98490.98
2017-10-11T00:02:59.671Z,98489.14
2017-10-11T00:05:27.184Z,98490.43
2017-10-11T00:07:54.696Z,98493.95
2017-10-11T00:10:22.208Z,98494.97
2017-10-11T00:12:49.739Z,98491.92
2017-10-11T00:15:17.257Z,98490.14
2017-10-11T00:17:44.760Z,98488.14
2017-10-11T00:20:12.273Z,98492.81
2017-10-11T00:22:39.917Z,98485.37
2017-10-11T00:25:07.462Z,98481.71
2017-10-11T00:27:35.008Z,98484.45
2017-10-11T00:30:02.525Z,98483.23
2017-10-11T00:32:30.045Z,98489.33
2017-10-11T00:34:57.597Z,98486.35
2017-10-11T00:37:25.115Z,98492.08
2017-10-11T00:39:52.613Z,98486.02
2017-10-11T00:42:20.140Z,98486.17
2017-10-11T00:49:23.707Z,98486.50
2017-10-11T00:51:51.204Z,98491.17
2017-10-11T00:54:18.740Z,98483.83
2017-10-11T00:56:46.284Z,98490.22
2017-10-11T00:59:13.800Z,98486.68
2017-10-11T01:01:41.320Z,98479.32
2017-10-11T01:04:08.832Z,98486.77
2017-10-11T01:06:36.348Z,98481.02
2017-10-11T01:09:03.867Z,98487.95
2017-10-11T01:11:31.395Z,98488.14
2017-10-11T01:13:58.908Z,98484.54
2017-10-11T01:16:26.550Z,98490.30
2017-10-11T01:18:54.120Z,98482.67
2017-10-11T01:21:21.631Z,98477.94
2017-10-11T01:23:49.140Z,98480.05
2017-10-11T01:26:16.662Z,98481.59
2017-10-11T01:28:44.195Z,98489.35
2017-10-11T01:31:11.730Z,98478.78
2017-10-11T01:33:39.253Z,98480.08
2017-10-11T01:36:06.809Z,98487.27
2017-10-11T01:38:34.331Z,98479.84
2017-10-11T01:41:01.868Z,98482.78
2017-10-11T01:43:29.428Z,98483.81
2017-10-11T01:45:56.953Z,98482.11
2017-10-11T01:48:24.466Z,98482.02
2017-10-11T01:50:51.972Z,98480.70
2017-10-11T01:53:19.483Z,98482.76
2017-10-11T01:55:47.021Z,98483.02
2017-10-11T01:58:14.531Z,98486.41
2017-10-11T02:00:42.097Z,98483.81
2017-10-11T02:03:09.610Z,98480.84
2017-10-11T02:05:37.163Z,98488.27
2017-10-11T02:08:04.672Z,98489.58
2017-10-11T02:10:32.211Z,98489.95
2017-10-11T02:12:59.717Z,98490.73
2017-10-11T02:15:27.226Z,98488.66
2017-10-11T02:17:54.739Z,98486.55
2017-10-11T02:20:22.234Z,98488.89
2017-10-11T02:22:49.747Z,98491.11
2017-10-11T02:25:17.270Z,98495.84
2017-10-11T02:27:44.787Z,98496.23
2017-10-11T02:30:12.299Z,98490.55
2017-10-11T02:32:39.829Z,98494.92
2017-10-11T02:35:07.345Z,98497.50
2017-10-11T02:37:34.855Z,98500.34
2017-10-11T02:40:02.424Z,98495.95
2017-10-11T02:42:29.956Z,98491.52
2017-10-11T02:44:57.460Z,98491.82
2017-10-11T02:47:24.993Z,98490.11
2017-10-11T02:49:52.537Z,98489.73
2017-10-11T02:52:20.044Z,98487.19
2017-10-11T02:54:47.565Z,98493.73
2017-10-11T02:57:15.072Z,98486.87
2017-10-11T02:59:42.597Z,98494.88
2017-10-11T03:02:10.115Z,98492.47
2017-10-11T03:04:37.703Z,98488.33
2017-10-11T03:07:05.215Z,98489.55
2017-10-11T03:09:32.736Z,98492.22
2017-10-11T03:12:00.270Z,98491.17
2017-10-11T03:14:27.790Z,98489.30
2017-10-11T03:16:55.328Z,98490.14
2017-10-11T03:19:22.827Z,98482.16
2017-10-11T03:21:50.348Z,98479.48
2017-10-11T03:24:17.868Z,98477.72
2017-10-11T03:26:45.394Z,98484.78
2017-10-11T03:29:12.901Z,98481.77
2017-10-11T03:31:40.419Z,98483.97
2017-10-11T03:34:08.817Z,98487.70
2017-10-11T03:36:36.329Z,98486.13
2017-10-11T03:39:03.843Z,98484.73
2017-10-11T03:41:31.364Z,98492.34
2017-10-11T03:43:58.881Z,98492.51
2017-10-11T03:46:26.417Z,98494.54
2017-10-11T03:48:53.949Z,98490.92
2017-10-11T03:51:21.456Z,98490.67
2017-10-11T03:53:48.975Z,98496.42
2017-10-11T03:56:16.487Z,98490.81
2017-10-11T03:58:44.102Z,98491.35
2017-10-11T04:01:11.613Z,98487.08
2017-10-11T04:03:39.272Z,98487.08
2017-10-11T04:06:06.800Z,98487.00
2017-10-11T04:08:34.309Z,98489.01
2017-10-11T04:11:01.825Z,98485.45
2017-10-11T04:13:29.344Z,98478.15
2017-10-11T04:15:56.868Z,98482.86
2017-10-11T04:18:24.388Z,98477.31
2017-10-11T04:20:51.901Z,98481.23
2017-10-11T04:23:19.454Z,98474.70
2017-10-11T04:25:46.962Z,98479.08
2017-10-11T04:28:14.609Z,98482.22
2017-10-11T04:30:42.136Z,98484.47
2017-10-11T04:33:09.719Z,98481.81
2017-10-11T04:35:37.243Z,98484.64
2017-10-11T04:38:04.768Z,98473.64
2017-10-11T04:40:32.308Z,98474.86
2017-10-11T04:42:59.871Z,98472.39
2017-10-11T04:45:27.392Z,98476.13
2017-10-11T04:47:54.936Z,98478.75
2017-10-11T04:50:22.443Z,98476.77
2017-10-11T04:52:49.984Z,98475.45
2017-10-11T04:55:17.511Z,98471.72
2017-10-11T04:57:45.015Z,98469.95
2017-10-11T05:00:12.534Z,98466.77
2017-10-11T05:02:40.118Z,98469.63
2017-10-11T05:05:07.675Z,98475.50
2017-10-11T05:07:35.203Z,98471.19
2017-10-11T05:10:02.704Z,98476.14
2017-10-11T05:12:30.208Z,98478.98
2017-10-11T05:14:57.739Z,98479.70
2017-10-11T05:17:25.251Z,98480.09
2017-10-11T05:19:52.790Z,98483.42
2017-10-11T05:22:20.313Z,98488.63
2017-10-11T05:24:47.834Z,98488.83
2017-10-11T05:27:15.381Z,98492.77
2017-10-11T05:29:42.909Z,98496.38
2017-10-11T05:32:10.514Z,98500.78
2017-10-11T05:34:38.058Z,98495.66
2017-10-11T05:37:05.574Z,98495.00
2017-10-11T05:39:33.199Z,98507.30
2017-10-11T05:42:00.709Z,98509.58
2017-10-11T05:44:28.309Z,98507.19
2017-10-11T05:46:55.819Z,98509.06
2017-10-11T05:49:23.427Z,98516.31
2017-10-11T05:51:50.985Z,98516.07
2017-10-11T05:54:18.554Z,98517.78
2017-10-11T05:56:46.103Z,98520.19
2017-10-11T05:59:13.607Z,98516.88
2017-10-11T06:01:41.114Z,98498.30
2017-10-11T06:04:08.611Z,98496.21
2017-10-11T06:06:36.118Z,98496.75
2017-10-11T06:09:03.627Z,98509.48
2017-10-11T06:11:31.150Z,98517.39
2017-10-11T06:13:58.660Z,98511.55
2017-10-11T06:16:26.269Z,98513.45
2017-10-11T06:18:53.780Z,98509.15
2017-10-11T06:21:21.324Z,98512.70
2017-10-11T06:23:48.834Z,98520.78
2017-10-11T06:26:16.360Z,98520.94
2017-10-11T06:28:43.887Z,98523.20
2017-10-11T06:31:11.388Z,98530.02
2017-10-11T06:33:38.898Z,98520.59
2017-10-11T06:36:06.399Z,98525.49
2017-10-11T06:38:33.942Z,98526.72
2017-10-11T06:41:01.467Z,98524.16
2017-10-11T06:43:28.997Z,98527.39
2017-10-11T06:45:56.532Z,98524.95
2017-10-11T06:48:24.052Z,98526.98
2017-10-11T06:50:51.559Z,98520.70
2017-10-11T06:53:19.076Z,98515.30
2017-10-11T06:55:46.593Z,98523.45
2017-10-11T06:58:14.124Z,98526.30
2017-10-11T07:00:41.615Z,98529.20
2017-10-11T07:03:09.169Z,98528.67
2017-10-11T07:05:36.682Z,98532.75
2017-10-11T07:08:04.200Z,98536.56
2017-10-11T07:10:31.715Z,98533.13
2017-10-11T07:12:59.272Z,98538.39
2017-10-11T07:15:26.788Z,98538.23
2017-10-11T07:17:54.299Z,98539.09
2017-10-11T07:20:21.812Z,98529.73
2017-10-11T07:22:49.333Z,98533.75
2017-10-11T07:25:16.839Z,98533.52
2017-10-11T07:27:44.349Z,98535.47
2017-10-11T07:30:11.851Z,98540.77
2017-10-11T07:32:39.370Z,98541.05
2017-10-11T07:35:06.880Z,98536.97
2017-10-11T07:37:34.383Z,98533.20
2017-10-11T07:40:01.888Z,98542.12
2017-10-11T07:42:29.409Z,98535.70
2017-10-11T07:44:56.953Z,98542.44
2017-10-11T07:47:24.628Z,98542.47
2017-10-11T07:49:52.134Z,98537.23
2017-10-11T07:52:19.668Z,98543.64
2017-10-11T07:54:47.179Z,98547.53
2017-10-11T07:57:14.884Z,98542.22
2017-10-11T07:59:42.387Z,98545.59
2017-10-11T08:02:09.898Z,98548.41
2017-10-11T08:04:37.435Z,98547.80
2017-10-11T08:07:04.943Z,98543.64
2017-10-11T08:09:32.464Z,98537.95
2017-10-11T08:12:00.037Z,98541.94
2017-10-11T08:14:27.552Z,98540.86
2017-10-11T08:16:55.074Z,98543.40
2017-10-11T08:19:22.604Z,98550.25
2017-10-11T08:21:50.124Z,98547.95
2017-10-11T08:24:17.638Z,98548.72
2017-10-11T08:26:45.155Z,98545.70
2017-10-11T08:29:12.655Z,98546.55
2017-10-11T08:31:40.174Z,98550.04
2017-10-11T08:34:07.679Z,98553.89
2017-10-11T08:36:35.204Z,98558.97
2017-10-11T08:39:02.720Z,98554.38
2017-10-11T08:41:30.221Z,98546.92
2017-10-11T08:43:57.735Z,98551.39
2017-10-11T08:46:25.261Z,98547.31
2017-10-11T08:48:52.793Z,98549.11
2017-10-11T08:51:20.317Z,98551.38
2017-10-11T08:53:47.837Z,98551.49
2017-10-11T08:56:15.352Z,98551.77
2017-10-11T08:58:42.854Z,98554.80
2017-10-11T09:01:10.396Z,98560.06
2017-10-11T09:03:37.920Z,98549.41
2017-10-11T09:06:05.459Z,98554.91
2017-10-11T09:08:32.963Z,98548.92
2017-10-11T09:11:00.465Z,98553.78
2017-10-11T09:13:27.972Z,98548.02
2017-10-11T09:15:55.485Z,98545.45
2017-10-11T09:18:23.056Z,98546.30
2017-10-11T09:20:50.556Z,98541.04
2017-10-11T09:23:18.092Z,98549.67
2017-10-11T09:25:45.604Z,98543.67
2017-10-11T09:28:13.140Z,98538.98
2017-10-11T09:30:40.643Z,98542.67
2017-10-11T09:33:08.144Z,98531.07
2017-10-11T09:35:35.670Z,98538.20
2017-10-11T09:38:03.226Z,98533.58
2017-10-11T09:40:30.724Z,98535.05
2017-10-11T09:42:58.240Z,98533.16
2017-10-11T09:45:25.769Z,98528.07
2017-10-11T09:47:53.282Z,98524.34
2017-10-11T09:50:20.880Z,98526.42
2017-10-11T09:52:48.416Z,98519.78
2017-10-11T09:55:15.939Z,98518.34
2017-10-11T09:57:43.451Z,98520.30
2017-10-11T10:00:10.948Z,98510.62
2017-10-11T10:02:38.455Z,98509.16
2017-10-11T10:05:05.959Z,98505.64
2017-10-11T10:07:33.574Z,98503.69
2017-10-11T10:10:01.117Z,98496.38
2017-10-11T10:12:28.627Z,98499.45
2017-10-11T10:14:56.136Z,98497.95
2017-10-11T10:17:23.638Z,98499.59
2017-10-11T10:19:51.239Z,98498.55
2017-10-11T10:22:18.764Z,98503.83
2017-10-11T10:24:46.290Z,98499.89
2017-10-11T10:27:13.854Z,98504.89
2017-10-11T10:29:41.365Z,98491.59
2017-10-11T10:32:08.878Z,98498.06
2017-10-11T10:34:36.393Z,98496.23
2017-10-11T10:37:03.915Z,98488.21
2017-10-11T10:39:31.418Z,98486.31
2017-10-11T10:41:58.942Z,98492.39
2017-10-11T10:44:26.465Z,98488.92
2017-10-11T10:46:53.988Z,98479.53
2017-10-11T10:49:21.494Z,98488.12
2017-10-11T10:51:49.010Z,98481.09
2017-10-11T10:54:16.549Z,98477.75
2017-10-11T10:56:44.110Z,98482.75
2017-10-11T10:59:11.615Z,98483.96
2017-10-11T11:01:39.148Z,98483.26
2017-10-11T11:04:06.653Z,98474.30
2017-10-11T11:06:34.163Z,98475.73
2017-10-11T11:09:01.700Z,98461.38
2017-10-11T11:11:29.207Z,98464.22
2017-10-11T11:13:56.720Z,98461.86
2017-10-11T11:16:24.239Z,98456.48
2017-10-11T11:18:51.746Z,98456.33
2017-10-11T11:21:19.368Z,98452.16
2017-10-11T11:23:46.870Z,98452.99
2017-10-11T11:26:14.396Z,98447.09
2017-10-11T11:28:41.913Z,98444.89
2017-10-11T11:31:09.441Z,98436.80
2017-10-11T11:33:36.955Z,98430.74
2017-10-11T11:36:04.565Z,98425.77
2017-10-11T11:38:32.091Z,98426.20
2017-10-11T11:40:59.604Z,98414.85
2017-10-11T11:43:28.820Z,98419.89
2017-10-11T11:45:56.347Z,98413.77
2017-10-11T11:48:23.879Z,98416.77
2017-10-11T11:50:51.387Z,98416.86
2017-10-11T11:53:18.898Z,98412.27
2017-10-11T11:55:46.456Z,98410.52
2017-10-11T11:58:14.005Z,98413.36
2017-10-11T12:00:41.525Z,98409.93
2017-10-11T12:03:09.036Z,98401.37
2017-10-11T12:05:36.563Z,98402.19
2017-10-11T12:08:04.087Z,98399.94
2017-10-11T12:10:31.586Z,98404.77
2017-10-11T12:12:59.118Z,98401.79
2017-10-11T12:15:26.636Z,98393.82
2017-10-11T12:17:54.148Z,98385.97
2017-10-11T12:20:21.694Z,98390.58
2017-10-11T12:22:49.240Z,98380.10
2017-10-11T12:25:16.798Z,98375.48
2017-10-11T12:27:44.311Z,98376.59
2017-10-11T12:30:11.827Z,98378.28
2017-10-11T12:32:39.335Z,98379.50
2017-10-11T12:35:06.848Z,98384.67
2017-10-11T12:37:34.375Z,98388.69
2017-10-11T12:40:01.919Z,98385.28
2017-10-11T12:42:29.444Z,98378.83
2017-10-11T12:44:56.968Z,98374.12
2017-10-11T12:47:24.488Z,98380.68
2017-10-11T12:49:52.008Z,98377.63
2017-10-11T12:52:19.535Z,98372.44
2017-10-11T12:54:47.106Z,98364.28
2017-10-11T12:57:14.634Z,98356.58
2017-10-11T12:59:42.134Z,98356.25
2017-10-11T13:02:09.652Z,98357.05
2017-10-11T13:04:37.163Z,98355.16
2017-10-11T13:07:04.703Z,98356.71
2017-10-11T13:09:32.216Z,98351.84
2017-10-11T13:11:59.763Z,98355.69
2017-10-11T13:14:27.281Z,98352.46
2017-10-11T13:16:54.862Z,98347.65
2017-10-11T13:19:22.371Z,98341.84
2017-10-11T13:21:49.904Z,98347.52
2017-10-11T13:24:17.423Z,98339.37
2017-10-11T13:26:44.967Z,98335.06
2017-10-11T13:29:12.519Z,98336.07
2017-10-11T13:31:40.036Z,98329.48
2017-10-11T13:34:07.584Z,98338.86
2017-10-11T13:36:35.098Z,98331.69
2017-10-11T13:39:02.614Z,98330.59
2017-10-11T13:41:30.123Z,98327.12
2017-10-11T13:43:57.674Z,98326.46
2017-10-11T13:46:25.200Z,98324.06
2017-10-11T13:48:52.726Z,98325.05
2017-10-11T13:51:20.236Z,98318.84
2017-10-11T13:53:47.749Z,98320.08
2017-10-11T13:56:15.259Z,98317.15
2017-10-11T13:58:42.795Z,98316.28
2017-10-11T14:01:10.330Z,98313.27
2017-10-11T14:03:37.912Z,98306.82
2017-10-11T14:06:05.494Z,98311.16
2017-10-11T14:08:33.005Z,98302.97
2017-10-11T14:11:00.512Z,98300.47
2017-10-11T14:13:28.068Z,98295.92
2017-10-11T14:15:55.569Z,98297.88
2017-10-11T14:18:23.120Z,98287.59
2017-10-11T14:20:50.641Z,98287.19
2017-10-11T14:23:18.174Z,98298.03
2017-10-11T14:25:45.709Z,98288.18
2017-10-11T14:28:13.240Z,98292.86
2017-10-11T14:30:40.748Z,98292.61
2017-10-11T14:33:08.265Z,98292.86
2017-10-11T14:35:35.783Z,98296.16
2017-10-11T14:38:03.282Z,98299.39
2017-10-11T14:40:30.788Z,98295.64
2017-10-11T14:42:58.439Z,98288.25
2017-10-11T14:45:25.951Z,98286.16
2017-10-11T14:47:53.463Z,98284.40
2017-10-11T14:50:20.967Z,98284.49
2017-10-11T14:52:48.489Z,98288.59
2017-10-11T14:55:15.994Z,98282.45
2017-10-11T14:57:43.522Z,98282.45
2017-10-11T15:00:11.031Z,98275.61
2017-10-11T15:02:38.536Z,98281.75
2017-10-11T15:05:06.049Z,98274.59
2017-10-11T15:07:33.556Z,98277.81
2017-10-11T15:10:01.102Z,98278.27
2017-10-11T15:12:28.599Z,98276.84
2017-10-11T15:14:56.114Z,98277.87
2017-10-11T15:17:23.644Z,98277.47
2017-10-11T15:19:51.172Z,98278.52
2017-10-11T15:22:18.692Z,98278.63
2017-10-11T15:24:46.216Z,98273.45
2017-10-11T15:27:13.734Z,98271.30
2017-10-11T15:29:41.254Z,98272.92
2017-10-11T15:32:08.812Z,98274.34
2017-10-11T15:34:36.352Z,98271.26
2017-10-11T15:37:03.894Z,98281.01
2017-10-11T15:39:31.435Z,98270.27
2017-10-11T15:41:58.947Z,98280.03
2017-10-11T15:44:26.475Z,98274.25
2017-10-11T15:46:54.073Z,98276.61
2017-10-11T15:49:21.628Z,98275.44
2017-10-11T15:51:49.145Z,98272.44
2017-10-11T15:54:16.672Z,98276.98
2017-10-11T15:56:44.251Z,98279.35
2017-10-11T15:59:11.773Z,98276.05
2017-10-11T16:01:39.304Z,98280.34
2017-10-11T16:04:06.846Z,98283.59
2017-10-11T16:06:34.362Z,98285.34
2017-10-11T16:09:01.893Z,98281.11
2017-10-11T16:11:29.407Z,98276.38
2017-10-11T16:13:56.962Z,98287.09
2017-10-11T16:16:24.465Z,98287.09
2017-10-11T16:18:52.418Z,98291.02
2017-10-11T16:21:19.928Z,98288.74
2017-10-11T16:23:47.449Z,98286.55
2017-10-11T16:26:14.973Z,98282.53
2017-10-11T16:28:42.507Z,98288.83
2017-10-11T16:31:10.028Z,98283.47
2017-10-11T16:33:37.531Z,98289.89
2017-10-11T16:36:05.084Z,98290.50
2017-10-11T16:38:32.602Z,98287.53
2017-10-11T16:41:00.121Z,98286.35
2017-10-11T16:43:27.637Z,98285.95
2017-10-11T16:45:55.278Z,98287.53
2017-10-11T16:48:22.836Z,98293.53
2017-10-11T16:50:50.365Z,98294.41
2017-10-11T16:53:17.884Z,98289.59
2017-10-11T16:55:45.419Z,98296.80
2017-10-11T16:58:12.943Z,98290.95
2017-10-11T17:00:40.471Z,98293.44
2017-10-11T17:03:08.031Z,98298.52
2017-10-11T17:05:35.648Z,98298.45
2017-10-11T17:08:03.161Z,98301.30
2017-10-11T17:10:30.693Z,98305.99
2017-10-11T17:12:58.238Z,98302.99
2017-10-11T17:15:25.770Z,98302.96
2017-10-11T17:17:53.307Z,98305.22
2017-10-11T17:20:20.816Z,98304.61
2017-10-11T17:22:48.329Z,98305.91
2017-10-11T17:25:15.852Z,98306.14
2017-10-11T17:27:43.476Z,98299.48
2017-10-11T17:30:11.040Z,98312.69
2017-10-11T17:32:38.568Z,98314.56
2017-10-11T17:35:06.101Z,98314.09
2017-10-11T17:37:33.620Z,98318.88
2017-10-11T17:40:01.137Z,98315.03
2017-10-11T17:42:28.648Z,98317.23
2017-10-11T17:44:56.181Z,98309.77
2017-10-11T17:47:23.715Z,98313.72
2017-10-11T17:49:51.266Z,98320.47
2017-10-11T17:52:18.787Z,98324.03
2017-10-11T17:54:46.324Z,98325.88
2017-10-11T17:57:13.973Z,98324.17
2017-10-11T17:59:41.479Z,98325.38
2017-10-11T18:02:09.020Z,98332.52
2017-10-11T18:04:36.567Z,98330.45
2017-10-11T18:07:04.080Z,98328.80
2017-10-11T18:09:31.635Z,98325.45
2017-10-11T18:11:59.163Z,98332.65
2017-10-11T18:14:26.673Z,98330.33
2017-10-11T18:16:54.224Z,98337.02
2017-10-11T18:19:21.767Z,98337.58
2017-10-11T18:21:49.354Z,98334.81
2017-10-11T18:24:16.910Z,98327.51
2017-10-11T18:26:44.473Z,98337.55
2017-10-11T18:29:12.006Z,98333.98
2017-10-11T18:31:39.542Z,98334.73
2017-10-11T18:34:07.148Z,98330.48
2017-10-11T18:36:34.692Z,98332.23
2017-10-11T18:39:02.247Z,98332.73
2017-10-11T18:41:29.777Z,98340.01
2017-10-11T18:43:57.312Z,98337.13
2017-10-11T18:46:24.830Z,98334.59
2017-10-11T18:48:52.368Z,98337.91
2017-10-11T18:51:19.896Z,98342.75
2017-10-11T18:53:47.419Z,98343.67
2017-10-11T18:56:14.972Z,98354.86
2017-10-11T18:58:42.538Z,98347.91
2017-10-11T19:01:10.058Z,98351.55
2017-10-11T19:03:37.634Z,98351.42
2017-10-11T19:06:05.164Z,98351.98
2017-10-11T19:08:32.834Z,98356.30
2017-10-11T19:11:00.375Z,98352.57
2017-10-11T19:13:27.939Z,98350.95
2017-10-11T19:15:55.471Z,98355.06
2017-10-11T19:18:23.007Z,98353.48
2017-10-11T19:20:50.560Z,98352.60
2017-10-11T19:23:18.104Z,98360.44
2017-10-11T19:25:45.639Z,98364.44
2017-10-11T19:28:13.167Z,98363.47
2017-10-11T19:30:40.805Z,98365.94
2017-10-11T19:33:08.337Z,98365.97
2017-10-11T19:35:35.858Z,98356.41
2017-10-11T19:38:03.375Z,98360.36
2017-10-11T19:40:30.925Z,98355.52
2017-10-11T19:42:58.466Z,98358.72
2017-10-11T19:45:25.980Z,98362.25
2017-10-11T19:47:53.529Z,98365.61
2017-10-11T19:50:21.047Z,98365.92
2017-10-11T19:52:48.562Z,98372.06
2017-10-11T19:55:16.079Z,98370.36
2017-10-11T19:57:43.684Z,98369.32
2017-10-11T20:00:12.181Z,98374.69
2017-10-11T20:02:40.038Z,98377.65
2017-10-11T20:05:07.615Z,98376.70
2017-10-11T20:07:35.141Z,98373.38
2017-10-11T20:10:02.676Z,98377.91
2017-10-11T20:12:32.364Z,98371.77
2017-10-11T20:15:01.682Z,98374.80
2017-10-11T20:17:34.774Z,98376.97
2017-10-11T20:20:04.673Z,98373.84
2017-10-11T20:22:38.191Z,98383.13
2017-10-11T20:25:07.822Z,98377.29
2017-10-11T20:27:43.646Z,98367.34
2017-10-11T20:30:14.672Z,98365.49
2017-10-11T20:32:45.221Z,98374.01
2017-10-11T20:35:14.801Z,98376.34
2017-10-11T20:37:43.181Z,98375.73
2017-10-11T20:40:13.588Z,98375.16
2017-10-11T20:42:45.579Z,98377.08
2017-10-11T20:45:13.149Z,98379.36
2017-10-11T20:47:45.038Z,98376.08
2017-10-11T20:50:14.814Z,98379.41
2017-10-11T20:52:42.328Z,98378.48
2017-10-11T20:55:09.856Z,98375.09
2017-10-11T20:57:37.371Z,98378.55
2017-10-11T21:00:04.913Z,98375.15
2017-10-11T21:02:32.431Z,98379.21
2017-10-11T21:05:00.051Z,98378.28
2017-10-11T21:07:27.583Z,98376.31
2017-10-11T21:09:55.146Z,98377.64
2017-10-11T21:12:22.727Z,98378.69
2017-10-11T21:14:50.266Z,98375.59
2017-10-11T21:17:17.775Z,98376.27
2017-10-11T21:19:45.294Z,98375.21
2017-10-11T21:22:12.821Z,98376.34
2017-10-11T21:24:40.357Z,98374.01
2017-10-11T21:27:07.871Z,98373.02
2017-10-11T21:29:35.406Z,98382.96
2017-10-11T21:32:02.914Z,98379.98
2017-10-11T21:34:30.455Z,98376.53
2017-10-11T21:36:57.959Z,98375.34
2017-10-11T21:39:25.611Z,98382.86
2017-10-11T21:41:53.140Z,98374.77
2017-10-11T21:44:20.665Z,98380.00
2017-10-11T21:46:48.347Z,98386.38
2017-10-11T21:49:15.882Z,98397.25
2017-10-11T21:51:43.417Z,98393.21
2017-10-11T21:54:10.916Z,98393.25
2017-10-11T21:56:38.435Z,98390.80
2017-10-11T21:59:06.039Z,98393.34
2017-10-11T22:01:33.554Z,98396.73
2017-10-11T22:04:01.090Z,98395.25
2017-10-11T22:06:28.621Z,98396.31
2017-10-11T22:08:56.145Z,98397.29
2017-10-11T22:11:23.728Z,98395.44
2017-10-11T22:13:51.249Z,98393.70
2017-10-11T22:16:18.783Z,98396.95
2017-10-11T22:18:46.300Z,98398.55
2017-10-11T22:21:13.862Z,98389.14
2017-10-11T22:23:41.414Z,98390.35
2017-10-11T22:26:08.951Z,98393.55
2017-10-11T22:28:36.562Z,98396.25
2017-10-11T22:31:04.075Z,98398.27
2017-10-11T22:33:31.631Z,98399.35
2017-10-11T22:35:59.160Z,98403.38
2017-10-11T22:38:26.679Z,98404.47
2017-10-11T22:40:54.194Z,98412.67
2017-10-11T22:43:21.712Z,98414.16
2017-10-11T22:45:49.230Z,98416.97
2017-10-11T22:48:16.804Z,98416.70
2017-10-11T22:50:44.331Z,98417.64
2017-10-11T22:53:11.831Z,98418.74
2017-10-11T22:55:39.378Z,98426.11
2017-10-11T22:58:06.944Z,98422.23
2017-10-11T23:00:34.448Z,98413.45
2017-10-11T23:03:01.965Z,98415.08
2017-10-11T23:05:29.502Z,98424.85
2017-10-11T23:07:57.080Z,98422.13
2017-10-11T23:10:24.615Z,98424.14
2017-10-11T23:12:52.128Z,98428.84
2017-10-11T23:15:19.640Z,98423.33
2017-10-11T23:17:47.176Z,98419.89
2017-10-11T23:20:14.687Z,98424.22
2017-10-11T23:22:42.183Z,98423.83
2017-10-11T23:25:09.696Z,98424.23
2017-10-11T23:27:37.215Z,98431.76
2017-10-11T23:30:04.739Z,98422.21
2017-10-11T23:32:32.353Z,98416.53
2017-10-11T23:34:59.891Z,98424.41
2017-10-11T23:37:27.392Z,98416.67
2017-10-11T23:39:54.899Z,98416.16
2017-10-11T23:42:22.397Z,98424.06
2017-10-11T23:44:49.901Z,98425.61
2017-10-11T23:47:17.419Z,98421.02
2017-10-11T23:49:44.934Z,98414.09
2017-10-11T23:52:12.446Z,98413.58
2017-10-11T23:54:40.038Z,98417.09
2017-10-11T23:57:07.565Z,98416.00
2017-10-11T23:59:38.517Z,98410.35
